Time;durP1;ratioP1;P1;durP2;ratioP2;P2;SDS_P1;SDS_P2;PMS_P1;PMS_P2;Temp;Humidity;BMP_temperature;BMP_pressure;BME280_temperature;BME280_humidity;BME280_pressure;Samples;Min_cycle;Max_cycle;Signal;HPM_P1;HPM_P2
2021/03/03 00:02:20;;;;;;;;;;;;;;;29.51;43.52;101184.50;5036777;28;66132;-43
2021/03/03 00:04:50;;;;;;;;;;;;;;;29.51;45.37;101179.09;5035929;28;69732;-33
2021/03/03 00:07:20;;;;;;;;;;;;;;;29.59;44.26;101192.44;5035023;28;68203;-33
2021/03/03 00:09:50;;;;;;;;;;;;;;;29.67;47.51;101192.28;5035598;28;70209;-34
2021/03/03 00:12:20;;;;;;;;;;;;;;;29.64;49.31;101206.19;5037219;28;66213;-33
2021/03/03 00:14:53;;;;;;;;;;;;;;;29.70;49.56;101199.13;5022722;28;70677;-33
2021/03/03 00:17:22;;;;;;;;;;;;;;;29.75;50.96;101208.28;5036308;28;65704;-36
2021/03/03 00:19:52;;;;;;;;;;;;;;;29.71;52.23;101215.16;5037286;28;68953;-33
2021/03/03 00:22:22;;;;;;;;;;;;;;;29.81;49.99;101218.31;5040708;28;66723;-33
2021/03/03 00:24:51;;;;;;;;;;;;;;;29.89;52.53;101219.97;5037210;28;68992;-32
2021/03/03 00:27:21;;;;;;;;;;;;;;;29.81;54.55;101229.13;5033297;28;66219;-33
2021/03/03 00:30:08;;;;;;;;;;;;;;;29.91;56.16;101236.00;5039866;28;69988;-34
2021/03/03 00:32:38;;;;;;;;;;;;;;;29.96;53.08;101236.22;5037524;28;65252;-32
2021/03/03 00:35:08;;;;;;;;;;;;;;;29.92;54.57;101245.75;5034509;28;69992;-33
2021/03/03 00:37:38;;;;;;;;;;;;;;;29.94;54.36;101243.69;5040905;28;66129;-32
2021/03/03 00:40:09;;;;;;;;;;;;;;;29.92;53.95;101248.47;5040453;28;68912;-34
2021/03/03 00:42:39;;;;;;;;;;;;;;;29.95;53.26;101256.16;5046254;28;65606;-33
2021/03/03 00:45:09;;;;;;;;;;;;;;;30.01;54.26;101255.38;5040408;28;69656;-35
2021/03/03 00:47:38;;;;;;;;;;;;;;;30.05;53.28;101267.44;5040846;28;66152;-33
2021/03/03 00:50:11;;;;;;;;;;;;;;;30.15;53.00;101269.75;5038662;28;69948;-34
2021/03/03 00:52:48;;;;;;;;;;;;;;;30.16;52.54;101271.41;5039734;28;66195;-34
2021/03/03 00:55:18;;;;;;;;;;;;;;;30.14;53.11;101274.31;5041670;28;69523;-32
2021/03/03 00:57:48;;;;;;;;;;;;;;;30.17;53.37;101275.78;5038608;28;66497;-33
2021/03/03 01:00:38;;;;;;;;;;;;;;;30.28;52.36;101278.75;5036704;28;70606;-33
2021/03/03 01:03:09;;;;;;;;;;;;;;;30.35;52.74;101294.16;5037903;28;66260;-33
2021/03/03 01:05:42;;;;;;;;;;;;;;;30.38;52.05;101291.03;5044414;28;69568;-34
2021/03/03 01:08:14;;;;;;;;;;;;;;;30.41;52.83;101296.03;5028758;28;66427;-34
2021/03/03 01:10:45;;;;;;;;;;;;;;;30.31;53.60;101295.59;5039540;28;69779;-33
2021/03/03 01:13:18;;;;;;;;;;;;;;;30.30;52.83;101296.66;5020727;28;66009;-33
2021/03/03 01:15:49;;;;;;;;;;;;;;;30.20;54.26;101305.97;5037415;28;70070;-34
2021/03/03 01:18:25;;;;;;;;;;;;;;;30.21;53.53;101309.50;5040941;28;65627;-34
2021/03/03 01:20:55;;;;;;;;;;;;;;;30.30;53.17;101305.59;5039996;28;69066;-34
2021/03/03 01:23:25;;;;;;;;;;;;;;;30.28;55.08;101300.41;5039606;28;65518;-34
2021/03/03 01:25:55;;;;;;;;;;;;;;;30.30;54.64;101308.31;5038338;28;70990;-33
2021/03/03 01:28:25;;;;;;;;;;;;;;;30.43;54.05;101315.63;5039694;28;66391;-34
2021/03/03 01:30:56;;;;;;;;;;;;;;;30.44;53.93;101319.97;5039689;28;69086;-35
2021/03/03 01:33:26;;;;;;;;;;;;;;;30.42;54.27;101324.75;5036889;28;66221;-34
2021/03/03 01:35:57;;;;;;;;;;;;;;;30.43;54.38;101319.16;5040231;28;70034;-35
2021/03/03 01:38:27;;;;;;;;;;;;;;;30.47;54.40;101324.97;5040052;28;65326;-33
2021/03/03 01:40:57;;;;;;;;;;;;;;;30.58;53.97;101327.06;5039317;28;70174;-33
2021/03/03 01:43:31;;;;;;;;;;;;;;;30.60;53.32;101330.41;5038767;28;65624;-35
2021/03/03 01:46:00;;;;;;;;;;;;;;;30.61;53.76;101332.06;5040348;28;69312;-34
2021/03/03 01:48:30;;;;;;;;;;;;;;;30.66;53.07;101324.16;5039016;28;66301;-34
2021/03/03 01:51:00;;;;;;;;;;;;;;;30.77;52.89;101330.00;5038220;28;69377;-32
2021/03/03 01:53:30;;;;;;;;;;;;;;;30.65;53.82;101336.03;5037394;28;66657;-34
2021/03/03 01:55:59;;;;;;;;;;;;;;;30.67;52.94;101324.97;5032537;28;69133;-33
2021/03/03 01:58:29;;;;;;;;;;;;;;;30.69;54.67;101334.56;5037687;28;66092;-33
2021/03/03 02:01:17;;;;;;;;;;;;;;;30.75;53.50;101332.06;5037934;28;70273;-34
2021/03/03 02:03:47;;;;;;;;;;;;;;;30.67;55.00;101330.41;5037908;28;66405;-36
2021/03/03 02:06:41;;;;;;;;;;;;;;;30.67;54.38;101342.09;5037611;28;70038;-36
2021/03/03 02:09:17;;;;;;;;;;;;;;;30.76;55.46;101344.56;5035437;28;67269;-35
2021/03/03 02:11:53;;;;;;;;;;;;;;;30.73;55.11;101335.81;5039082;28;69933;-34
2021/03/03 02:14:25;;;;;;;;;;;;;;;30.70;55.83;101330.84;5035511;28;67033;-34
2021/03/03 02:16:55;;;;;;;;;;;;;;;30.77;55.91;101335.41;5037648;28;70037;-35
2021/03/03 02:19:29;;;;;;;;;;;;;;;30.68;55.41;101338.31;5036286;28;66251;-34
2021/03/03 02:22:17;;;;;;;;;;;;;;;30.76;55.08;101333.72;5034636;28;69083;-34
2021/03/03 02:25:07;;;;;;;;;;;;;;;30.78;55.21;101331.66;5038826;28;65662;-33
2021/03/03 02:27:40;;;;;;;;;;;;;;;30.86;54.76;101345.00;5028013;28;69969;-36
2021/03/03 02:30:10;;;;;;;;;;;;;;;30.89;55.28;101344.59;5038623;28;66281;-33
2021/03/03 02:32:40;;;;;;;;;;;;;;;30.90;55.65;101351.69;5050814;28;69024;-34
2021/03/03 02:35:10;;;;;;;;;;;;;;;30.79;54.48;101341.47;5037765;28;65858;-34
2021/03/03 02:37:41;;;;;;;;;;;;;;;30.82;54.38;101338.34;5036016;28;70576;-33
2021/03/03 02:40:12;;;;;;;;;;;;;;;30.85;55.13;101333.34;5052936;28;65249;-35
2021/03/03 02:42:42;;;;;;;;;;;;;;;30.92;54.02;101338.75;5037797;28;69695;-34
2021/03/03 02:45:17;;;;;;;;;;;;;;;30.89;53.51;101337.28;5036333;28;65995;-33
2021/03/03 02:47:47;;;;;;;;;;;;;;;30.99;53.19;101338.75;5036489;28;70711;-34
2021/03/03 02:50:18;;;;;;;;;;;;;;;31.01;53.37;101342.06;5051131;28;67060;-34
2021/03/03 02:52:54;;;;;;;;;;;;;;;31.03;53.19;101331.88;5037443;28;70624;-34
2021/03/03 02:55:26;;;;;;;;;;;;;;;31.05;53.32;101333.31;5036378;28;66410;-34
2021/03/03 02:57:57;;;;;;;;;;;;;;;31.07;53.55;101323.13;5037028;28;69805;-33
2021/03/03 03:00:41;;;;;;;;;;;;;;;31.08;53.57;101319.34;5036368;28;66318;-34
2021/03/03 03:03:20;;;;;;;;;;;;;;;31.12;53.42;101323.31;5036455;28;70777;-32
2021/03/03 03:06:06;;;;;;;;;;;;;;;31.14;53.70;101315.78;5036954;28;66239;-32
2021/03/03 03:08:37;;;;;;;;;;;;;;;31.15;53.66;101316.66;5035706;28;69353;-33
2021/03/03 03:11:09;;;;;;;;;;;;;;;31.19;52.96;101306.19;5043081;27;65613;-33
2021/03/03 03:13:40;;;;;;;;;;;;;;;31.21;53.65;101306.84;5037856;28;70449;-34
2021/03/03 03:16:10;;;;;;;;;;;;;;;31.21;53.67;101304.13;5036770;28;65370;-34
2021/03/03 03:18:42;;;;;;;;;;;;;;;31.25;53.33;101305.34;5035500;28;69825;-34
2021/03/03 03:21:12;;;;;;;;;;;;;;;31.27;52.96;101298.66;5039526;28;65861;-33
2021/03/03 03:23:44;;;;;;;;;;;;;;;31.28;53.38;101299.50;5038847;28;69732;-34
2021/03/03 03:26:13;;;;;;;;;;;;;;;31.30;52.96;101284.69;5035476;28;66717;-34
2021/03/03 03:28:43;;;;;;;;;;;;;;;31.34;52.92;101283.22;5035035;28;70788;-40
2021/03/03 03:31:14;;;;;;;;;;;;;;;31.39;53.16;101282.59;5031078;28;66111;-34
2021/03/03 03:33:44;;;;;;;;;;;;;;;31.38;53.13;101284.47;5035530;28;68904;-34
2021/03/03 03:36:14;;;;;;;;;;;;;;;31.44;52.62;101280.09;5034675;28;66755;-33
2021/03/03 03:38:43;;;;;;;;;;;;;;;31.44;53.34;101273.84;5036969;28;69226;-34
2021/03/03 03:41:13;;;;;;;;;;;;;;;31.46;52.92;101266.31;5036424;28;66305;-34
2021/03/03 03:43:44;;;;;;;;;;;;;;;31.47;52.94;101271.50;5036997;28;70041;-35
2021/03/03 03:46:14;;;;;;;;;;;;;;;31.50;53.06;101270.25;5034655;28;66081;-34
2021/03/03 03:48:44;;;;;;;;;;;;;;;31.50;52.89;101281.94;5034013;28;69876;-34
2021/03/03 03:51:14;;;;;;;;;;;;;;;31.50;52.91;101271.09;5037224;28;65702;-33
2021/03/03 03:53:44;;;;;;;;;;;;;;;31.55;52.76;101263.13;5036150;28;69287;-34
2021/03/03 03:56:14;;;;;;;;;;;;;;;31.55;52.17;101259.59;5036544;28;66316;-34
2021/03/03 03:58:43;;;;;;;;;;;;;;;31.58;52.10;101256.44;5037542;28;69073;-34
2021/03/03 04:01:13;;;;;;;;;;;;;;;31.57;52.12;101244.78;5037039;28;66299;-35
2021/03/03 04:03:43;;;;;;;;;;;;;;;31.61;52.17;101240.56;5039075;28;69833;-36
2021/03/03 04:06:13;;;;;;;;;;;;;;;31.64;51.76;101233.88;5039338;28;65710;-39
2021/03/03 04:08:42;;;;;;;;;;;;;;;31.66;52.38;101220.13;5041972;28;69899;-36
2021/03/03 04:11:15;;;;;;;;;;;;;;;31.64;52.22;101227.63;5038551;28;65602;-36
2021/03/03 04:13:45;;;;;;;;;;;;;;;31.70;51.65;101224.06;5039362;28;70117;-36
2021/03/03 04:16:17;;;;;;;;;;;;;;;31.69;51.78;101219.69;5041305;28;66349;-36
2021/03/03 04:18:50;;;;;;;;;;;;;;;31.73;51.50;101212.75;5037617;28;70461;-35
2021/03/03 04:21:24;;;;;;;;;;;;;;;31.76;51.74;101204.19;5030979;28;65241;-36
2021/03/03 04:23:54;;;;;;;;;;;;;;;31.79;51.72;101211.91;5040564;28;70436;-36
2021/03/03 04:26:27;;;;;;;;;;;;;;;31.80;52.26;101208.97;5040498;28;65528;-35
2021/03/03 04:28:57;;;;;;;;;;;;;;;31.84;51.64;101206.63;5040674;28;70183;-35
2021/03/03 04:31:28;;;;;;;;;;;;;;;31.85;51.86;101202.88;5038863;28;66637;-36
2021/03/03 04:34:00;;;;;;;;;;;;;;;31.88;51.38;101190.78;5049640;28;70376;-36
2021/03/03 04:36:30;;;;;;;;;;;;;;;31.92;51.53;101187.41;5039653;28;66115;-39
2021/03/03 04:39:01;;;;;;;;;;;;;;;31.95;51.10;101180.72;5053912;28;69937;-36
2021/03/03 04:41:31;;;;;;;;;;;;;;;31.95;50.96;101175.28;5038298;28;66624;-35
2021/03/03 04:44:01;;;;;;;;;;;;;;;31.89;50.76;101163.41;5039485;28;70595;-37
2021/03/03 04:46:31;;;;;;;;;;;;;;;31.96;50.41;101172.38;5032673;28;65604;-39
2021/03/03 04:49:02;;;;;;;;;;;;;;;31.95;50.73;101159.84;5026828;28;69014;-37
2021/03/03 04:51:35;;;;;;;;;;;;;;;32.01;50.30;101160.84;5035606;28;66002;-37
2021/03/03 04:54:05;;;;;;;;;;;;;;;32.02;49.92;101155.19;5037345;28;70614;-36
2021/03/03 04:56:36;;;;;;;;;;;;;;;32.04;50.40;101139.53;5029808;28;65475;-36
2021/03/03 04:59:07;;;;;;;;;;;;;;;32.02;50.22;101133.50;5037854;28;69265;-38
2021/03/03 05:01:38;;;;;;;;;;;;;;;32.05;50.15;101138.47;5038764;28;66371;-35
2021/03/03 05:04:08;;;;;;;;;;;;;;;32.11;49.63;101135.94;5041645;28;69387;-38
2021/03/03 05:06:38;;;;;;;;;;;;;;;32.13;50.09;101122.97;5037370;28;66185;-35
2021/03/03 05:09:10;;;;;;;;;;;;;;;32.15;49.61;101120.84;5036681;28;70136;-36
2021/03/03 05:11:42;;;;;;;;;;;;;;;32.15;49.55;101120.84;5040655;28;66479;-37
2021/03/03 05:14:13;;;;;;;;;;;;;;;32.15;49.91;101109.97;5039775;28;69827;-37
2021/03/03 05:16:44;;;;;;;;;;;;;;;32.17;49.37;101107.88;5040498;28;67138;-36
2021/03/03 05:19:18;;;;;;;;;;;;;;;32.18;49.48;101101.41;5039979;28;70142;-35
2021/03/03 05:21:48;;;;;;;;;;;;;;;32.21;49.52;101111.84;5037600;28;69058;-36
2021/03/03 05:24:17;;;;;;;;;;;;;;;32.19;49.43;101101.19;5035726;28;69855;-41
2021/03/03 05:26:52;;;;;;;;;;;;;;;32.22;49.24;101094.47;5047671;28;66215;-33
2021/03/03 05:29:23;;;;;;;;;;;;;;;32.30;49.18;101094.19;5039066;28;69313;-33
2021/03/03 05:31:53;;;;;;;;;;;;;;;32.30;48.91;101091.47;5042628;28;64981;-33
2021/03/03 05:34:22;;;;;;;;;;;;;;;32.35;49.15;101080.78;5048018;28;69805;-34
2021/03/03 05:36:55;;;;;;;;;;;;;;;32.39;49.20;101079.25;5038631;28;65632;-33
2021/03/03 05:39:24;;;;;;;;;;;;;;;32.36;49.15;101076.16;5049631;28;69793;-34
2021/03/03 05:41:58;;;;;;;;;;;;;;;32.39;48.65;101079.25;5055345;28;64557;-35
2021/03/03 05:44:28;;;;;;;;;;;;;;;32.41;48.92;101060.84;5043207;28;69412;-36
2021/03/03 05:47:02;;;;;;;;;;;;;;;32.37;48.68;101070.50;5048892;28;66583;-33
2021/03/03 05:49:34;;;;;;;;;;;;;;;32.42;48.75;101062.50;5038202;28;69720;-34
2021/03/03 05:52:06;;;;;;;;;;;;;;;32.46;48.87;101065.66;5036540;28;65491;-35
2021/03/03 05:54:52;;;;;;;;;;;;;;;32.51;48.92;101059.53;5039449;28;69810;-34
2021/03/03 05:57:25;;;;;;;;;;;;;;;32.51;48.62;101054.09;5039065;28;67004;-38
2021/03/03 06:00:15;;;;;;;;;;;;;;;32.55;48.65;101044.44;5038119;28;69271;-36
2021/03/03 06:02:46;;;;;;;;;;;;;;;32.55;48.29;101039.00;5037503;28;67016;-37
2021/03/03 06:05:18;;;;;;;;;;;;;;;32.61;48.60;101038.09;5039000;28;70755;-35
2021/03/03 06:07:51;;;;;;;;;;;;;;;32.59;48.40;101029.34;5036121;28;66060;-35
2021/03/03 06:10:21;;;;;;;;;;;;;;;32.57;48.13;101023.31;5039882;28;69767;-34
2021/03/03 06:12:50;;;;;;;;;;;;;;;32.62;48.25;101026.97;5053989;28;66842;-34
2021/03/03 06:15:26;;;;;;;;;;;;;;;32.60;48.47;101022.88;5036907;28;70054;-34
2021/03/03 06:17:56;;;;;;;;;;;;;;;32.69;47.82;101016.88;5039087;28;65580;-34
2021/03/03 06:20:37;;;;;;;;;;;;;;;32.71;48.10;101012.06;5039034;28;70046;-34
2021/03/03 06:23:19;;;;;;;;;;;;;;;32.64;47.92;101007.75;5047171;28;65614;-34
2021/03/03 06:25:50;;;;;;;;;;;;;;;32.69;47.83;101007.91;5038316;28;69779;-35
2021/03/03 06:28:37;;;;;;;;;;;;;;;32.70;48.10;101009.56;5037890;28;67003;-35
2021/03/03 06:31:23;;;;;;;;;;;;;;;32.82;47.73;101002.28;5037951;28;70479;-35
2021/03/03 06:34:08;;;;;;;;;;;;;;;32.89;47.67;101004.91;5033053;28;66889;-34
2021/03/03 06:36:43;;;;;;;;;;;;;;;32.85;47.42;101006.44;5036893;28;69912;-34
2021/03/03 06:39:15;;;;;;;;;;;;;;;32.89;47.49;101004.91;5020044;28;66273;-34
2021/03/03 06:41:45;;;;;;;;;;;;;;;32.90;47.60;100996.53;5038068;28;70203;-34
2021/03/03 06:44:15;;;;;;;;;;;;;;;32.86;47.71;100984.47;5052349;28;65820;-35
2021/03/03 06:47:00;;;;;;;;;;;;;;;32.91;47.50;100986.50;5049891;28;70199;-34
2021/03/03 06:49:30;;;;;;;;;;;;;;;32.88;47.75;100982.34;5038153;28;66156;-34
2021/03/03 06:52:01;;;;;;;;;;;;;;;32.86;47.71;100975.47;5036934;28;70235;-35
2021/03/03 06:54:31;;;;;;;;;;;;;;;32.89;47.53;100975.84;5038712;28;65394;-34
2021/03/03 06:57:05;;;;;;;;;;;;;;;33.00;47.67;100976.16;5035549;28;69337;-34
2021/03/03 06:59:41;;;;;;;;;;;;;;;33.00;47.55;100970.72;5038068;28;66865;-34
2021/03/03 07:02:15;;;;;;;;;;;;;;;33.04;47.76;100971.88;5039659;28;69865;-34
2021/03/03 07:05:05;;;;;;;;;;;;;;;33.01;47.55;100970.47;5036928;28;65208;-33
2021/03/03 07:07:35;;;;;;;;;;;;;;;33.10;46.42;100960.09;5038501;28;69123;-34
2021/03/03 07:10:07;;;;;;;;;;;;;;;33.12;45.88;100964.22;5034407;28;65367;-35
2021/03/03 07:12:48;;;;;;;;;;;;;;;33.21;46.07;100951.13;5036688;28;69995;-33
2021/03/03 07:15:18;;;;;;;;;;;;;;;33.26;46.09;100947.69;5035316;28;66239;-33
2021/03/03 07:17:48;;;;;;;;;;;;;;;33.26;46.79;100937.66;5032886;28;69919;-35
2021/03/03 07:20:19;;;;;;;;;;;;;;;33.36;46.47;100937.91;5034538;28;66350;-34
2021/03/03 07:22:56;;;;;;;;;;;;;;;33.38;45.87;100946.66;5033084;28;71031;-34
2021/03/03 07:25:26;;;;;;;;;;;;;;;33.42;45.34;100935.31;5036585;28;66224;-35
2021/03/03 07:27:58;;;;;;;;;;;;;;;33.48;44.25;100934.34;5034517;28;70565;-35
2021/03/03 07:30:27;;;;;;;;;;;;;;;33.58;43.74;100926.47;5036342;28;66036;-35
2021/03/03 07:33:01;;;;;;;;;;;;;;;33.61;43.78;100928.69;5036360;28;70099;-33
2021/03/03 07:35:34;;;;;;;;;;;;;;;33.68;43.09;100917.69;5034843;28;65451;-33
2021/03/03 07:38:05;;;;;;;;;;;;;;;33.69;44.18;100913.91;5038662;28;69856;-34
2021/03/03 07:40:35;;;;;;;;;;;;;;;33.55;44.27;100914.16;5033496;28;66755;-33
2021/03/03 07:43:06;;;;;;;;;;;;;;;33.48;44.63;100907.97;5037410;28;69204;-34
2021/03/03 07:45:39;;;;;;;;;;;;;;;33.49;44.62;100906.06;5041195;28;65553;-34
2021/03/03 07:48:11;;;;;;;;;;;;;;;33.41;44.60;100899.13;5037982;28;70378;-34
2021/03/03 07:50:42;;;;;;;;;;;;;;;33.45;45.06;100902.19;5039227;28;66870;-35
2021/03/03 07:53:14;;;;;;;;;;;;;;;33.47;44.58;100889.19;5033951;28;69279;-33
2021/03/03 07:55:47;;;;;;;;;;;;;;;33.28;44.86;100864.84;5040586;28;65396;-34
2021/03/03 07:58:17;;;;;;;;;;;;;;;33.43;45.05;100877.94;5040981;28;68346;-34
2021/03/03 08:00:47;;;;;;;;;;;;;;;33.46;45.06;100876.66;5041240;28;66652;-35
2021/03/03 08:03:38;;;;;;;;;;;;;;;33.47;45.26;100886.47;5040136;28;70009;-34
2021/03/03 08:06:20;;;;;;;;;;;;;;;33.42;45.36;100886.34;5040976;28;65465;-34
2021/03/03 08:09:06;;;;;;;;;;;;;;;33.38;45.78;100880.56;5039149;28;70736;-41
2021/03/03 08:11:38;;;;;;;;;;;;;;;33.38;45.91;100881.41;5038557;28;67059;-35
2021/03/03 08:14:43;;;;;;;;;;;;;;;33.44;45.91;100868.75;5037557;28;68272;-34
2021/03/03 08:17:24;;;;;;;;;;;;;;;33.44;45.99;100870.63;5016285;28;66139;-34
2021/03/03 08:19:59;;;;;;;;;;;;;;;33.46;46.08;100871.22;5036995;28;70195;-34
2021/03/03 08:22:50;;;;;;;;;;;;;;;33.56;46.11;100871.47;5044388;28;65382;-34
2021/03/03 08:25:38;;;;;;;;;;;;;;;33.65;44.96;100861.88;5036927;28;70003;-34
2021/03/03 08:28:24;;;;;;;;;;;;;;;33.72;44.62;100851.69;5035669;28;66240;-34
2021/03/03 08:31:07;;;;;;;;;;;;;;;33.88;44.66;100857.44;5039034;28;69278;-33
2021/03/03 08:33:38;;;;;;;;;;;;;;;33.77;44.47;100857.25;5040129;28;66509;-33
2021/03/03 08:36:26;;;;;;;;;;;;;;;33.85;43.59;100857.91;5039208;28;69900;-39
2021/03/03 08:38:57;;;;;;;;;;;;;;;33.77;44.24;100849.06;5028069;28;65653;-34
2021/03/03 08:41:29;;;;;;;;;;;;;;;33.72;44.65;100843.53;5039662;28;69982;-33
2021/03/03 08:44:07;;;;;;;;;;;;;;;33.64;44.86;100843.91;5034588;28;65631;-34
2021/03/03 08:46:39;;;;;;;;;;;;;;;33.69;44.81;100854.06;5040477;28;69616;-35
2021/03/03 08:49:09;;;;;;;;;;;;;;;33.71;45.08;100852.78;5027271;28;67168;-34
2021/03/03 08:51:39;;;;;;;;;;;;;;;33.66;45.13;100849.13;5040184;28;70113;-43
2021/03/03 08:54:12;;;;;;;;;;;;;;;33.65;45.19;100853.72;5039495;28;66104;-35
2021/03/03 08:56:43;;;;;;;;;;;;;;;33.66;45.16;100855.38;5037181;28;70582;-35
2021/03/03 08:59:14;;;;;;;;;;;;;;;33.60;45.51;100850.91;5042183;28;65469;-34
2021/03/03 09:02:02;;;;;;;;;;;;;;;33.66;45.57;100852.66;5049216;28;68911;-33
2021/03/03 09:04:33;;;;;;;;;;;;;;;33.61;45.71;100859.88;5051326;28;67323;-35
2021/03/03 09:07:13;;;;;;;;;;;;;;;33.61;45.77;100849.81;5035252;28;70540;-34
2021/03/03 09:09:49;;;;;;;;;;;;;;;33.57;46.11;100862.22;5051811;28;66570;-34
2021/03/03 09:12:27;;;;;;;;;;;;;;;33.67;46.12;100851.59;5041071;28;69142;-32
2021/03/03 09:14:58;;;;;;;;;;;;;;;33.69;46.36;100863.06;5048670;28;67330;-34
2021/03/03 09:17:32;;;;;;;;;;;;;;;33.58;46.26;100853.03;5039086;28;70011;-35
2021/03/03 09:20:12;;;;;;;;;;;;;;;33.45;46.60;100864.94;5053670;28;65554;-33
2021/03/03 09:22:43;;;;;;;;;;;;;;;33.38;46.92;100865.09;5055626;28;70086;-34
2021/03/03 09:25:22;;;;;;;;;;;;;;;33.41;46.82;100866.50;5039876;28;65461;-35
2021/03/03 09:27:57;;;;;;;;;;;;;;;33.36;46.62;100872.63;5039863;28;69886;-33
2021/03/03 09:30:29;;;;;;;;;;;;;;;33.34;46.42;100872.03;5026159;28;67066;-36
2021/03/03 09:33:05;;;;;;;;;;;;;;;33.36;46.12;100877.25;5036304;28;68947;-34
2021/03/03 09:35:36;;;;;;;;;;;;;;;33.40;45.96;100883.03;5044366;28;66232;-35
2021/03/03 09:38:10;;;;;;;;;;;;;;;33.41;45.09;100880.09;5041228;28;70244;-34
2021/03/03 09:40:40;;;;;;;;;;;;;;;33.43;44.90;100871.69;5023954;28;65221;-34
2021/03/03 09:43:15;;;;;;;;;;;;;;;33.40;44.71;100877.59;5041249;28;71142;-33
2021/03/03 09:45:47;;;;;;;;;;;;;;;33.42;44.20;100886.34;5049049;28;66361;-32
2021/03/03 09:48:25;;;;;;;;;;;;;;;33.42;44.18;100880.91;5053564;28;70581;-36
2021/03/03 09:50:58;;;;;;;;;;;;;;;33.42;43.89;100883.63;5034008;28;67150;-34
2021/03/03 09:53:28;;;;;;;;;;;;;;;33.42;43.86;100880.91;5042913;28;70688;-35
2021/03/03 09:56:00;;;;;;;;;;;;;;;33.41;43.51;100879.28;5040476;28;65543;-33
2021/03/03 09:58:31;;;;;;;;;;;;;;;33.49;43.95;100889.75;5038994;28;70015;-34
2021/03/03 10:01:03;;;;;;;;;;;;;;;33.51;43.82;100890.34;5049224;28;67055;-34
2021/03/03 10:03:39;;;;;;;;;;;;;;;33.49;43.89;100892.47;5035274;28;69994;-33
2021/03/03 10:06:09;;;;;;;;;;;;;;;33.48;44.23;100891.66;5042908;28;65208;-35
2021/03/03 10:08:41;;;;;;;;;;;;;;;33.46;44.52;100891.09;5028126;28;44465;-33
2021/03/03 10:11:11;;;;;;;;;;;;;;;33.43;45.02;100894.25;5049346;28;66383;-34
2021/03/03 10:13:41;;;;;;;;;;;;;;;33.42;45.16;100894.50;5040249;28;69228;-34
2021/03/03 10:16:17;;;;;;;;;;;;;;;33.42;45.53;100897.22;5044330;28;66287;-33
2021/03/03 10:19:01;;;;;;;;;;;;;;;33.38;45.45;100900.44;5052568;28;70028;-33
2021/03/03 10:21:32;;;;;;;;;;;;;;;33.40;45.79;100910.22;5039541;28;66712;-34
2021/03/03 10:24:12;;;;;;;;;;;;;;;33.38;46.23;100911.31;5039560;28;69894;-33
2021/03/03 10:26:50;;;;;;;;;;;;;;;33.29;46.70;100918.19;5045303;28;66189;-35
2021/03/03 10:29:36;;;;;;;;;;;;;;;33.31;46.64;100907.88;5038358;28;69772;-38
2021/03/03 10:32:10;;;;;;;;;;;;;;;33.29;46.38;100910.03;5038420;28;64996;-39
2021/03/03 10:34:40;;;;;;;;;;;;;;;33.32;45.62;100920.41;5035489;28;69354;-35
2021/03/03 10:37:22;;;;;;;;;;;;;;;33.25;45.79;100925.13;5028088;28;66183;-37
2021/03/03 10:39:52;;;;;;;;;;;;;;;33.26;45.67;100932.22;5030894;28;69717;-40
2021/03/03 10:42:23;;;;;;;;;;;;;;;33.18;45.25;100937.16;5029029;28;66292;-36
2021/03/03 10:44:53;;;;;;;;;;;;;;;33.11;45.19;100937.28;5035806;28;69455;-35
2021/03/03 10:47:42;;;;;;;;;;;;;;;33.15;45.38;100935.75;5041903;28;66894;-34
2021/03/03 10:50:32;;;;;;;;;;;;;;;33.06;45.51;100940.69;5035431;28;70695;-36
2021/03/03 10:53:03;;;;;;;;;;;;;;;33.06;45.43;100946.13;5044958;28;66415;-33
2021/03/03 10:55:33;;;;;;;;;;;;;;;33.05;45.78;100949.09;5048732;28;70000;-36
2021/03/03 10:58:05;;;;;;;;;;;;;;;33.08;45.87;100948.63;5035720;28;66152;-35
2021/03/03 11:00:53;;;;;;;;;;;;;;;33.09;45.70;100951.09;5036834;28;70449;-34
2021/03/03 11:03:24;;;;;;;;;;;;;;;33.07;45.80;100961.41;5044368;28;66677;-34
2021/03/03 11:05:55;;;;;;;;;;;;;;;33.06;46.63;100964.34;5035796;28;69288;-35
2021/03/03 11:08:27;;;;;;;;;;;;;;;33.05;46.40;100962.69;5033960;28;66717;-35
2021/03/03 11:11:07;;;;;;;;;;;;;;;33.00;47.25;100960.66;5033888;28;70871;-35
2021/03/03 11:13:37;;;;;;;;;;;;;;;33.00;47.96;100954.41;5035165;28;65932;-36
2021/03/03 11:16:07;;;;;;;;;;;;;;;33.01;47.73;100956.06;5037003;28;71255;-35
2021/03/03 11:18:40;;;;;;;;;;;;;;;33.01;48.08;100964.19;5036469;28;67048;-35
2021/03/03 11:21:10;;;;;;;;;;;;;;;33.04;48.64;100967.31;5031299;28;67402;-36
2021/03/03 11:23:46;;;;;;;;;;;;;;;33.02;49.01;100969.41;5027212;28;65539;-34
2021/03/03 11:26:16;;;;;;;;;;;;;;;32.99;48.96;100974.44;5033028;28;70916;-35
2021/03/03 11:28:46;;;;;;;;;;;;;;;32.90;49.23;100972.09;5033670;28;66127;-34
2021/03/03 11:31:16;;;;;;;;;;;;;;;32.87;49.77;100977.94;5034650;28;69289;-35
2021/03/03 11:33:46;;;;;;;;;;;;;;;32.75;48.88;100987.97;5036794;28;65817;-34
2021/03/03 11:36:17;;;;;;;;;;;;;;;32.61;48.14;100989.22;5034816;28;70176;-35
2021/03/03 11:38:50;;;;;;;;;;;;;;;32.40;47.33;100983.19;5018964;28;66679;-37
2021/03/03 11:41:21;;;;;;;;;;;;;;;32.30;46.49;100992.94;5034577;28;70690;-36
2021/03/03 11:43:51;;;;;;;;;;;;;;;32.17;46.37;100999.31;5035349;28;66654;-34
2021/03/03 11:46:21;;;;;;;;;;;;;;;32.08;46.28;100998.81;5036273;28;69866;-33
2021/03/03 11:48:51;;;;;;;;;;;;;;;31.99;45.93;101009.13;5036341;28;65324;-33
2021/03/03 11:51:21;;;;;;;;;;;;;;;31.94;46.42;101010.84;5033823;28;70060;-35
2021/03/03 11:54:05;;;;;;;;;;;;;;;31.91;46.09;101014.84;5032749;28;66893;-35
2021/03/03 11:56:35;;;;;;;;;;;;;;;31.87;46.79;101016.28;5031787;28;69870;-34
2021/03/03 11:59:05;;;;;;;;;;;;;;;31.82;46.63;101013.47;5033884;28;66209;-39
2021/03/03 12:01:36;;;;;;;;;;;;;;;31.79;46.24;101017.44;5026557;28;69806;-34
2021/03/03 12:04:06;;;;;;;;;;;;;;;31.71;45.26;101016.91;5024252;28;66050;-34
2021/03/03 12:06:36;;;;;;;;;;;;;;;31.60;44.59;101027.41;5021756;28;70071;-35
2021/03/03 12:09:06;;;;;;;;;;;;;;;31.54;43.66;101039.16;5024784;28;65753;-35
2021/03/03 12:11:36;;;;;;;;;;;;;;;31.44;42.97;101032.56;5029029;28;69852;-33
2021/03/03 12:14:06;;;;;;;;;;;;;;;31.40;44.17;101037.59;5033668;28;66086;-32
2021/03/03 12:16:36;;;;;;;;;;;;;;;31.38;44.65;101037.81;5034097;28;70293;-36
2021/03/03 12:19:07;;;;;;;;;;;;;;;31.38;44.06;101036.97;5033272;28;65926;-33
2021/03/03 12:21:38;;;;;;;;;;;;;;;31.32;43.46;101035.94;5034761;28;69514;-34
2021/03/03 12:24:08;;;;;;;;;;;;;;;31.30;43.31;101031.78;5034816;28;66250;-34
2021/03/03 12:26:38;;;;;;;;;;;;;;;31.33;42.70;101039.47;5036819;28;70702;-33
2021/03/03 12:29:08;;;;;;;;;;;;;;;31.27;42.08;101041.19;5035467;28;67172;-34
2021/03/03 12:31:38;;;;;;;;;;;;;;;31.20;43.07;101042.28;5032345;28;70351;-35
2021/03/03 12:34:08;;;;;;;;;;;;;;;31.17;42.46;101040.84;5027680;28;67604;-35
2021/03/03 12:36:41;;;;;;;;;;;;;;;31.14;41.84;101039.38;5032283;28;69639;-35
2021/03/03 12:39:19;;;;;;;;;;;;;;;31.13;41.43;101043.16;5035343;28;66005;-33
2021/03/03 12:41:51;;;;;;;;;;;;;;;31.12;42.91;101046.94;5050966;28;69159;-35
2021/03/03 12:44:22;;;;;;;;;;;;;;;31.07;43.11;101049.47;5031947;28;66076;-34
2021/03/03 12:46:57;;;;;;;;;;;;;;;31.08;42.40;101053.81;5026352;28;70333;-35
2021/03/03 12:49:41;;;;;;;;;;;;;;;31.06;42.81;101065.91;5043578;28;65859;-36
2021/03/03 12:52:12;;;;;;;;;;;;;;;31.05;42.44;101066.97;5027471;28;70177;-37
2021/03/03 12:54:55;;;;;;;;;;;;;;;30.99;43.16;101071.38;5030090;28;66203;-36
2021/03/03 12:57:30;;;;;;;;;;;;;;;30.96;42.45;101079.13;5027619;28;69867;-40
2021/03/03 13:00:00;;;;;;;;;;;;;;;30.90;42.63;101081.63;5028367;28;67446;-35
2021/03/03 13:02:31;;;;;;;;;;;;;;;30.98;42.99;101087.84;5027806;28;69550;-35
2021/03/03 13:05:01;;;;;;;;;;;;;;;30.93;42.82;101085.78;5028909;28;65850;-36
2021/03/03 13:07:43;;;;;;;;;;;;;;;30.89;42.10;101089.97;5025742;28;69932;-37